Weather observations for the past three days for
Havasu City Airport
Metric (Imperial)
Date Time (mst) Wind (kph) Vis. (km) Weather Sky Cond. Temperature (ºC) Relative Humidity Wind Chill (°C) Heat Index (°C) Pressure Precipitation (cm)
Air Dwpt 6 hour altimeter (cm) sea level (mb) 1 hr 3 hr 6 hr
Max. Min.
04 19:35 S 30 16.09 Fair CLR 24 1 22% 25 75.64 0.0
04 19:15 S 22 G 41 16.09 Fair CLR 24 0 21% 25 75.62 0.0
04 18:55 S 31 16.09 Fair CLR 25 -1 18% 25 75.62 0.0
04 18:35 S 30 16.09 Fair CLR 25 -1 18% 25 75.62 0.0
04 18:15 S 28 16.09 Fair CLR 25 -1 18% 25 75.62 0.0
04 17:55 S 26 16.09 Fair CLR 26 0 18% 25 75.62 0.0
04 17:35 S 26 G 35 16.09 Fair CLR 26 0 18% 25 75.62 0.0
04 17:15 S 26 16.09 Fair CLR 26 1 20% 25 75.64 0.0
04 16:55 S 13 G 30 16.09 Fair CLR 26 2 21% 26 75.64 0.0
04 16:35 S 11 G 26 16.09 Fair CLR 26 1 20% 25 75.64 0.0
04 16:15 Vrbl 11 G 20 16.09 Fair CLR 26 2 21% 26 75.64 0.0
04 15:55 S 15 G 28 16.09 Fair CLR 26 2 21% 26 75.67 0.0
04 15:35 SE 20 16.09 Fair CLR 26 2 21% 26 75.67 0.0
04 15:15 SW 11 G 33 16.09 Fair CLR 26 2 21% 26 75.69 0.0
04 14:55 S 20 16.09 Fair CLR 26 2 21% 26 75.72 0.0
04 14:35 SW 20 G 39 16.09 Fair CLR 26 3 23% 26 75.74 0.0
04 14:15 SW 13 G 28 16.09 Fair CLR 25 3 24% 25 75.77 0.0
04 13:55 SW 22 16.09 Fair CLR 25 3 24% 25 75.77 0.0
04 13:35 S 13 G 28 16.09 Fair CLR 25 3 24% 25 75.79 0.0
04 13:15 S 19 G 28 16.09 Fair CLR 24 4 27% 25 75.79 0.0
04 12:55 S 11 G 30 16.09 Fair CLR 24 3 25% 25 75.79 0.0
04 12:35 SE 20 16.09 Fair CLR 24 3 25% 25 75.82 0.0
04 12:15 SE 17 G 30 16.09 Fair CLR 23 4 29% 75.82 0.0
04 11:55 S 15 G 28 16.09 Fair CLR 23 4 29% 75.84 0.0
04 11:35 SE 19 16.09 Fair CLR 23 5 31% 75.84 0.0
04 11:15 SE 19 G 28 16.09 Fair CLR 22 5 33% 75.87 0.0
04 10:55 SE 22 G 31 16.09 Fair CLR 22 5 33% 75.87 0.0
04 10:35 SE 24 G 37 16.09 Fair CLR 21 5 35% 75.84 0.0
04 10:15 SE 26 16.09 Fair CLR 21 5 35% 75.84 0.0
04 09:55 SE 31 16.09 Fair CLR 21 5 35% 75.82 0.0
04 09:35 SE 30 G 39 16.09 Fair CLR 21 5 35% 75.79 0.0
04 09:15 SE 31 G 44 16.09 Fair CLR 20 4 35% 75.79 0.0
04 08:55 SE 30 G 41 16.09 Fair CLR 20 4 35% 75.79 0.0
04 08:35 SE 30 16.09 Fair CLR 20 4 35% 75.79 0.0
04 08:15 SE 30 G 43 16.09 Fair CLR 20 4 35% 75.79 0.0
04 07:55 SE 33 G 44 16.09 Fair and Breezy CLR 20 4 35% 75.77 0.0
04 07:35 SE 31 G 41 16.09 Fair CLR 20 4 35% 75.74 0.0
04 07:15 SE 30 G 41 16.09 Fair CLR 20 4 35% 75.74 0.0
04 06:55 SE 24 G 35 16.09 Fair CLR 20 4 35% 75.74 0.0
04 06:35 SE 24 G 35 16.09 Fair CLR 20 4 35% 75.72 0.0
04 06:15 SE 26 G 37 16.09 Fair CLR 20 4 35% 75.72 0.0
04 05:55 SE 30 G 41 16.09 Fair CLR 20 5 38% 75.64 0.0
04 05:35 SE 24 G 37 16.09 Partly Cloudy SCT055 20 5 38% 75.64 0.0
04 04:55 SE 31 G 41 16.09 Partly Cloudy SCT060 21 5 35% 75.59 0.0
04 04:35 SE 28 G 39 14.48 Fair CLR 22 4 31% 75.57 0.0
04 04:15 SE 26 12.87 A Few Clouds FEW049 22 4 31% 75.57 0.0
04 03:55 SE 28 G 37 11.27 Mostly Cloudy BKN049 23 5 31% 75.57 0.0
04 03:35 SE 28 G 37 9.66 A Few Clouds with Haze FEW060 23 5 31% 75.57 0.0
04 03:15 SE 30 11.27 Mostly Cloudy BKN060 24 4 27% 25 75.59 0.0
04 02:55 S 24 12.87 Mostly Cloudy BKN060 24 5 29% 25 75.57 0.0
04 02:35 SE 28 G 39 11.27 Mostly Cloudy BKN055 24 6 31% 25 75.62 0.0
04 02:15 SE 28 G 39 9.66 Fair with Haze CLR 24 6 31% 25 75.59 0.0
04 01:55 SE 26 G 39 12.87 Fair CLR 25 5 28% 25 75.59 0.0
04 01:35 SE 26 G 37 16.09 Fair CLR 25 5 28% 25 75.57 0.0
04 01:15 SE 26 G 35 16.09 Fair CLR 26 5 26% 26 75.54 0.0
04 00:55 SE 28 G 37 16.09 Fair CLR 26 4 24% 26 75.51 0.0
04 00:35 SE 24 16.09 Fair CLR 27 4 23% 26 75.49 0.0
04 00:15 S 20 G 30 16.09 Fair CLR 27 3 21% 26 75.49 0.0
03 23:55 S 24 16.09 Fair CLR 27 3 21% 26 75.49 0.0
03 23:35 S 28 G 41 16.09 Fair CLR 28 2 19% 27 75.49 0.0
03 23:15 SE 20 G 30 16.09 Fair CLR 28 3 20% 27 75.46 0.0
03 22:55 SE 20 G 35 16.09 Fair CLR 28 3 20% 27 75.46 0.0
03 22:35 S 28 16.09 Fair CLR 29 4 20% 27 75.46 0.0
03 22:15 S 20 G 37 16.09 Fair CLR 29 4 20% 27 75.46 0.0
03 21:55 S 26 16.09 Fair CLR 29 3 19% 27 75.44 0.0
03 21:35 S 24 G 35 16.09 Fair CLR 30 3 18% 28 75.44 0.0
03 21:15 S 30 G 44 16.09 Fair CLR 30 1 15% 28 75.41 0.0
03 20:55 S 37 16.09 Fair and Breezy CLR 31 1 15% 29 75.39 0.0
03 20:35 S 26 G 39 16.09 Fair CLR 31 1 15% 29 75.36 0.0
03 20:15 S 26 G 35 16.09 Fair CLR 31 0 13% 29 75.34 0.0
03 19:55 S 22 16.09 Fair CLR 31 2 16% 29 75.31 0.0
03 19:35 S 24 16.09 Fair CLR 32 2 15% 30 75.31 0.0
03 19:15 S 28 16.09 Fair CLR 32 2 15% 30 75.29 0.0
03 18:55 S 30 16.09 Fair CLR 32 4 17% 30 75.29 0.0
03 18:35 S 30 16.09 Fair CLR 33 3 15% 31 75.29 0.0
03 18:15 S 35 16.09 Fair and Breezy CLR 34 1 12% 31 75.29 0.0
03 17:55 SW 30 G 39 16.09 Fair CLR 34 1 12% 31 75.29 0.0
03 17:35 SW 30 16.09 Fair CLR 34 2 13% 32 75.29 0.0
03 17:15 S 39 G 54 16.09 Fair and Breezy CLR 35 1 11% 32 75.29 0.0
03 16:55 S 33 G 44 16.09 Fair and Breezy CLR 35 1 11% 32 75.31 0.0
03 16:35 S 28 G 50 16.09 Fair CLR 35 -1 10% 32 75.31 0.0
03 16:15 S 31 G 44 16.09 Fair CLR 35 -1 10% 32 75.31 0.0
03 15:55 S 33 G 44 16.09 Fair and Breezy CLR 35 0 11% 32 75.31 0.0
03 15:35 SW 26 G 44 16.09 Fair CLR 36 -2 9% 33 75.34 0.0
03 15:15 S 37 G 50 16.09 Fair and Breezy CLR 36 -2 9% 33 75.36 0.0
03 14:55 S 35 G 54 16.09 Fair and Breezy CLR 36 -2 9% 33 75.39 0.0
03 14:35 S 33 G 50 16.09 Fair and Breezy CLR 36 -3 8% 33 75.39 0.0
03 14:15 S 35 G 48 16.09 Fair and Breezy CLR 35 -2 9% 32 75.41 0.0
03 13:55 S 26 G 46 16.09 Fair CLR 36 -2 9% 33 75.44 0.0
03 13:35 S 28 16.09 Fair CLR 36 -2 9% 33 75.46 0.0
03 13:15 SE 28 G 39 16.09 Fair CLR 35 -2 9% 32 75.49 0.0
03 12:55 S 22 G 39 16.09 Fair CLR 35 -1 10% 32 75.51 0.0
03 12:35 S 24 G 35 16.09 Fair CLR 35 -1 10% 32 75.54 0.0
03 12:15 S 30 G 39 16.09 Fair CLR 35 0 11% 32 75.54 0.0
03 11:55 SE 28 G 46 16.09 Fair CLR 34 2 13% 32 75.57 0.0
03 11:35 S 26 G 41 16.09 Fair CLR 34 2 13% 32 75.59 0.0
03 11:15 S 30 G 43 16.09 Fair CLR 34 2 13% 32 75.62 0.0
03 10:55 S 28 G 39 16.09 Fair CLR 33 1 13% 31 75.64 0.0
03 10:35 S 22 G 33 16.09 Fair CLR 33 2 14% 31 75.64 0.0
03 10:15 S 24 16.09 Fair CLR 33 1 13% 31 75.64 0.0
03 09:55 SW 9 16.09 Fair CLR 30 -2 12% 28 75.67 0.0
03 09:35 Vrbl 7 16.09 Fair CLR 29 -4 11% 27 75.67 0.0
03 09:15 Calm 16.09 Fair CLR 28 -4 12% 27 75.69 0.0
03 08:55 Calm 16.09 Fair CLR 27 -5 12% 26 75.69 0.0
03 08:35 Calm 16.09 Fair CLR 26 -5 12% 25 75.69 0.0
03 08:15 W 6 16.09 Fair CLR 26 -7 11% 25 75.69 0.0
03 07:55 Calm 16.09 Fair CLR 25 -7 11% 25 75.69 0.0
03 07:35 Calm 16.09 Fair CLR 24 -7 12% 24 75.69 0.0
03 07:15 Calm 16.09 Fair CLR 23 -6 14% 75.69 0.0
03 06:55 Calm 16.09 Fair CLR 22 -8 13% 75.67 0.0
03 06:35 Calm 16.09 Fair CLR 23 -8 12% 75.64 0.0
03 06:15 Calm 16.09 Fair CLR 22 -8 13% 75.64 0.0
03 05:55 NE 7 16.09 Fair CLR 22 -8 13% 75.62 0.0
03 05:35 Calm 16.09 Fair CLR 21 -9 12% 75.59 0.0
03 05:15 Calm 16.09 Fair CLR 22 -8 13% 75.59 0.0
03 04:55 Calm 16.09 Fair CLR 22 -9 12% 75.59 0.0
03 04:35 Calm 16.09 Fair CLR 23 -8 12% 75.62 0.0
03 04:15 Calm 16.09 Fair CLR 23 -8 12% 75.62 0.0
03 03:35 NW 7 16.09 Fair CLR 23 -7 13% 75.64 0.0
03 03:15 NE 6 16.09 Fair CLR 23 -6 14% 75.64 0.0
03 02:55 Calm 16.09 Fair CLR 23 -2 19% 75.64 0.0
03 02:35 E 13 16.09 Fair CLR 26 -9 9% 25 75.62 0.0
03 02:15 E 9 16.09 Fair CLR 26 -9 9% 25 75.64 0.0
03 01:55 E 9 16.09 Fair CLR 24 -10 10% 24 75.64 0.0
03 01:35 E 7 16.09 Fair CLR 24 -10 10% 24 75.64 0.0
03 01:15 SE 7 16.09 Fair CLR 25 -10 9% 24 75.67 0.0
03 00:55 SE 7 16.09 Fair CLR 26 -9 9% 25 75.67 0.0
03 00:35 E 7 16.09 Fair CLR 26 -8 10% 25 75.67 0.0
03 00:15 E 6 16.09 Fair CLR 26 -8 10% 25 75.67 0.0
02 23:55 Calm 16.09 Fair CLR 26 -7 11% 25 75.69 0.0
02 23:35 Calm 16.09 Fair CLR 27 -6 11% 26 75.69 0.0
02 23:15 E 9 16.09 Fair CLR 28 -9 8% 27 75.67 0.0
02 22:55 E 9 16.09 Fair CLR 29 -9 8% 27 75.67 0.0
02 22:35 E 11 16.09 Fair CLR 29 -9 8% 27 75.67 0.0
02 22:15 E 9 16.09 Fair CLR 28 -9 8% 27 75.67 0.0
02 21:55 E 9 16.09 Fair CLR 29 -8 8% 27 75.67 0.0
02 21:35 E 7 16.09 Fair CLR 29 -8 8% 27 75.67 0.0
02 21:15 NE 7 16.09 Fair CLR 29 -8 8% 27 75.64 0.0
02 20:55 Calm 16.09 Fair CLR 29 -8 8% 27 75.64 0.0
02 20:35 Calm 16.09 Fair CLR 29 -8 8% 27 75.62 0.0
02 20:15 Calm 16.09 Fair CLR 31 -8 7% 29 75.62 0.0
02 19:55 Calm 16.09 Fair CLR 31 -8 7% 29 75.59 0.0
02 19:35 SW 6 16.09 Fair CLR 32 -8 7% 30 75.59 0.0
02 19:15 SW 7 16.09 Fair CLR 33 -8 7% 31 75.57 0.0
02 18:55 W 7 16.09 Fair CLR 33 -7 7% 31 75.57 0.0
02 18:35 SW 9 16.09 Fair CLR 34 -7 7% 31 75.57 0.0
02 18:15 SW 13 16.09 Fair CLR 34 -7 7% 31 75.59 0.0
02 17:55 Vrbl 9 16.09 Fair CLR 34 -6 7% 31 75.59 0.0
02 17:35 SW 11 G 22 16.09 Fair CLR 34 -7 7% 31 75.59 0.0
02 17:15 SW 15 16.09 Fair CLR 34 -7 7% 31 75.59 0.0
02 16:55 SW 13 16.09 Fair CLR 35 -7 6% 32 75.62 0.0
02 16:35 SW 22 16.09 Fair CLR 35 -7 6% 32 75.62 0.0
02 16:15 SW 17 G 28 16.09 Fair CLR 34 -7 7% 31 75.62 0.0
02 15:55 SW 9 G 26 16.09 Fair CLR 34 -7 7% 31 75.64 0.0
02 15:35 SW 22 16.09 Fair CLR 35 -8 6% 32 75.64 0.0
02 15:15 SW 24 16.09 Fair CLR 35 -9 5% 32 75.67 0.0
02 14:55 NW 15 16.09 Fair CLR 34 -8 6% 31 75.72 0.0
02 14:35 SW 17 G 26 16.09 Fair CLR 34 -8 6% 31 75.77 0.0
02 14:15 SW 17 G 28 16.09 Fair CLR 34 -8 6% 31 75.79 0.0
02 13:55 SW 19 G 30 16.09 Fair CLR 34 -10 5% 32 75.82 0.0
02 13:35 W 17 G 26 16.09 Fair CLR 33 -11 5% 31 75.82 0.0
02 13:15 Vrbl 6 16.09 Fair CLR 33 -8 7% 31 75.82 0.0
02 12:55 Calm 16.09 Fair CLR 32 -6 8% 30 75.87 0.0
02 12:35 Vrbl 11 16.09 Fair CLR 32 -6 8% 30 75.9 0.0
02 12:15 SW 11 G 24 16.09 Fair CLR 32 -6 8% 30 75.92 0.0
02 11:55 Vrbl 11 G 22 16.09 Fair CLR 32 -6 8% 30 75.95 0.0
02 11:35 Vrbl 7 16.09 Fair CLR 31 -7 8% 29 75.95 0.0
02 11:15 W 13 16.09 Fair CLR 31 -7 8% 29 75.97 0.0
02 10:55 Calm 16.09 Fair CLR 30 -7 8% 28 76 0.0
02 10:35 Calm 16.09 Fair CLR 30 -8 8% 28 76 0.0
02 10:15 Vrbl 7 16.09 Fair CLR 30 -8 8% 28 76 0.0
02 09:55 W 13 16.09 Fair CLR 29 -8 8% 27 76 0.0
02 09:35 W 15 16.09 Fair CLR 29 -8 8% 27 76.02 0.0
02 09:15 W 15 16.09 Fair CLR 28 -8 9% 27 76.02 0.0
02 08:55 NW 15 16.09 Fair CLR 28 -9 8% 27 76 0.0
02 08:35 NW 13 16.09 Fair CLR 27 -9 9% 26 76 0.0
02 08:15 NW 17 16.09 Fair CLR 26 -9 9% 25 75.97 0.0
02 07:55 NW 13 16.09 Fair CLR 26 -9 9% 25 75.97 0.0
02 07:35 NW 7 16.09 Fair CLR 25 -9 10% 24 75.95 0.0
02 07:15 N 9 16.09 Fair CLR 24 -9 10% 24 75.95 0.0
02 06:55 N 11 16.09 Fair CLR 24 -9 10% 24 75.95 0.0
02 06:35 N 7 16.09 Fair CLR 24 -9 10% 24 75.92 0.0
02 06:15 Vrbl 6 G 19 16.09 Fair CLR 23 -9 11% 75.9 0.0
02 05:55 N 13 16.09 Fair CLR 23 -9 11% 75.9 0.0
02 05:35 Calm 16.09 Fair CLR 22 -9 12% 75.87 0.0
02 05:15 N 11 16.09 Fair CLR 23 -9 11% 75.84 0.0
02 04:55 Calm 16.09 Fair CLR 23 -10 10% 75.84 0.0
02 04:35 Calm 16.09 Fair CLR 23 -10 10% 75.82 0.0
02 04:15 Calm 16.09 Fair CLR 23 -10 10% 75.82 0.0
02 03:55 N 11 16.09 Fair CLR 25 -10 9% 24 75.79 0.0
02 03:35 N 13 G 28 16.09 Fair CLR 27 -9 9% 26 75.79 0.0
02 03:15 N 17 16.09 Fair CLR 27 -10 8% 26 75.79 0.0
02 02:55 N 17 16.09 Fair CLR 26 -11 8% 25 75.79 0.0
02 02:35 N 9 16.09 Fair CLR 26 -11 8% 25 75.79 0.0
02 02:15 N 11 16.09 Fair CLR 26 -11 8% 25 75.79 0.0
02 01:55 N 9 16.09 Fair CLR 26 -11 8% 25 75.82 0.0
02 01:35 N 7 16.09 Fair CLR 25 -11 8% 24 75.82 0.0
02 01:15 NW 13 16.09 Fair CLR 27 -11 7% 26 75.82 0.0
02 00:55 N 7 16.09 Fair CLR 26 -11 8% 25 75.82 0.0
02 00:15 N 6 16.09 Fair CLR 28 -11 7% 27 75.82 0.0
01 23:55 Vrbl 7 16.09 Fair CLR 28 -11 7% 27 75.82 0.0
01 23:35 NE 15 16.09 Fair CLR 29 -10 7% 27 75.82 0.0
01 23:15 NE 15 16.09 Fair CLR 29 -10 7% 27 75.79 0.0
01 22:55 N 11 16.09 Fair CLR 29 -10 7% 27 75.79 0.0
01 22:35 N 11 16.09 Fair CLR 29 -9 8% 27 75.79 0.0
01 22:15 N 7 16.09 Fair CLR 29 -9 8% 27 75.77 0.0
01 21:55 Vrbl 9 G 20 16.09 Fair CLR 30 -8 8% 28 75.77 0.0
01 21:35 NE 15 G 24 16.09 Fair CLR 30 -8 8% 28 75.74 0.0
01 21:15 N 20 G 31 16.09 Fair CLR 30 -8 8% 28 75.72 0.0
01 20:55 N 19 G 28 16.09 Fair CLR 30 -8 8% 28 75.72 0.0
01 20:35 N 13 G 28 16.09 Fair CLR 31 -8 7% 29 75.67 0.0
01 20:15 Calm 16.09 Fair CLR 31 -8 7% 29 75.67 0.0
Date Time (mst) Wind (kph) Vis. (km) Weather Sky Cond. Air Dwpt Max. Min. Relative Humidity Wind Chill (°C) Heat Index (°C) altimeter (cm) sea level (mb) 1 hr 3 hr 6 hr
6 hour
Temperature (ºC) Pressure Precipitation (cm)